Time;durP1;ratioP1;P1;durP2;ratioP2;P2;SDS_P1;SDS_P2;PMS_P1;PMS_P2;Temp;Humidity;BMP_temperature;BMP_pressure;BME280_temperature;BME280_humidity;BME280_pressure;Samples;Min_cycle;Max_cycle;Signal;HPM_P1;HPM_P2
2022/11/22 00:02:19;;;;;;;5.17;2.23;;;;;;;6.10;nan;96150.53;5033723;28;20227;-71
2022/11/22 00:04:45;;;;;;;6.33;2.17;;;;;;;6.11;nan;96159.25;5033742;28;20208;-71
2022/11/22 00:07:11;;;;;;;5.77;2.67;;;;;;;6.13;nan;96142.16;5033430;28;20212;-71
2022/11/22 00:09:38;;;;;;;6.40;2.60;;;;;;;6.10;nan;96132.06;5033375;28;20216;-71
2022/11/22 00:12:04;;;;;;;5.17;2.63;;;;;;;6.06;nan;96120.41;5033567;28;20225;-71
2022/11/22 00:14:31;;;;;;;4.03;2.50;;;;;;;6.18;nan;96118.50;5033633;28;20313;-71
2022/11/22 00:16:57;;;;;;;6.00;2.77;;;;;;;6.11;nan;96115.19;5033599;28;20210;-71
2022/11/22 00:19:23;;;;;;;3.60;2.00;;;;;;;6.15;nan;96107.63;5033272;28;20292;-71
2022/11/22 00:21:50;;;;;;;5.73;2.07;;;;;;;6.08;nan;96110.41;5033168;28;20229;-71
2022/11/22 00:24:16;;;;;;;3.30;1.90;;;;;;;6.16;nan;96101.31;5032986;28;20213;-71
2022/11/22 00:26:42;;;;;;;4.80;2.00;;;;;;;6.16;nan;96103.97;5033510;28;20209;-71
2022/11/22 00:29:09;;;;;;;3.03;2.00;;;;;;;6.11;nan;96099.38;5033423;28;20226;-71
2022/11/22 00:31:35;;;;;;;3.87;1.87;;;;;;;6.15;nan;96097.09;5033442;28;20283;-71
2022/11/22 00:34:02;;;;;;;5.83;2.40;;;;;;;6.16;nan;96103.97;5033365;28;20210;-71
2022/11/22 00:36:28;;;;;;;6.10;1.90;;;;;;;6.16;nan;96104.72;5033357;28;20205;-71
2022/11/22 00:38:54;;;;;;;3.73;1.80;;;;;;;6.19;nan;96101.63;5033097;28;20205;-72
2022/11/22 00:41:21;;;;;;;4.93;1.80;;;;;;;6.15;nan;96103.13;5033368;28;20225;-71
2022/11/22 00:43:47;;;;;;;3.03;1.87;;;;;;;6.17;nan;96105.53;5033024;28;20210;-71
2022/11/22 00:46:14;;;;;;;4.67;2.17;;;;;;;6.17;nan;96110.81;5033087;28;20210;-71
2022/11/22 00:48:40;;;;;;;3.90;1.80;;;;;;;6.25;nan;96115.72;5032935;28;20217;-71
2022/11/22 00:51:06;;;;;;;2.80;1.63;;;;;;;6.25;nan;96118.34;5032803;28;20241;-71
2022/11/22 00:53:33;;;;;;;1.80;1.40;;;;;;;6.28;nan;96120.50;5033307;28;20213;-71
2022/11/22 00:55:59;;;;;;;1.80;1.20;;;;;;;6.33;nan;96137.22;5033257;28;20238;-71
2022/11/22 00:58:25;;;;;;;2.17;1.40;;;;;;;6.35;nan;96137.00;5033240;28;20198;-71
2022/11/22 01:00:52;;;;;;;3.37;1.53;;;;;;;6.39;nan;96135.47;5033148;28;20226;-71
2022/11/22 01:03:18;;;;;;;2.90;1.40;;;;;;;6.44;nan;96148.75;5033152;28;20213;-71
2022/11/22 01:05:44;;;;;;;3.17;1.30;;;;;;;6.45;nan;96153.78;5033200;28;20206;-71
2022/11/22 01:08:11;;;;;;;1.73;1.40;;;;;;;6.49;nan;96154.91;5033048;28;20229;-71
2022/11/22 01:10:37;;;;;;;2.87;1.30;;;;;;;6.49;nan;96156.75;5033060;28;20233;-71
2022/11/22 01:13:04;;;;;;;1.70;1.20;;;;;;;6.52;nan;96166.84;5033081;28;20206;-71
2022/11/22 01:15:31;;;;;;;3.47;1.40;;;;;;;6.48;nan;96161.25;5033065;28;20228;-71
2022/11/22 01:17:58;;;;;;;2.20;1.30;;;;;;;6.46;nan;96157.22;5033102;28;20208;-71
2022/11/22 01:20:25;;;;;;;4.93;1.53;;;;;;;6.47;nan;96161.47;5032718;28;20288;-71
2022/11/22 01:22:51;;;;;;;3.50;1.40;;;;;;;6.50;nan;96166.25;5032761;28;20217;-71
2022/11/22 01:25:17;;;;;;;2.40;1.40;;;;;;;6.47;nan;96164.13;5032971;28;20221;-72
2022/11/22 01:27:44;;;;;;;3.23;1.60;;;;;;;6.46;nan;96173.06;5032843;28;20226;-71
2022/11/22 01:30:11;;;;;;;3.97;1.50;;;;;;;6.41;nan;96167.69;5032869;28;20206;-71
2022/11/22 01:32:37;;;;;;;3.53;1.63;;;;;;;6.43;nan;96173.56;5032996;28;20205;-71
2022/11/22 01:35:03;;;;;;;1.73;1.60;;;;;;;6.42;nan;96167.47;5033105;28;20209;-71
2022/11/22 01:37:30;;;;;;;4.63;1.73;;;;;;;6.40;nan;96166.91;5036496;28;20202;-72
2022/11/22 01:39:56;;;;;;;2.77;1.70;;;;;;;6.43;nan;96173.56;5036408;28;20205;-71
2022/11/22 01:42:23;;;;;;;5.30;1.47;;;;;;;6.44;nan;96175.13;5036304;28;20229;-71
2022/11/22 01:44:50;;;;;;;5.27;1.70;;;;;;;6.46;nan;96173.88;5036279;28;20212;-71
2022/11/22 01:47:25;;;;;;;2.97;1.80;;;;;;;6.49;nan;96168.13;5036338;28;20213;-71
2022/11/22 01:50:00;;;;;;;2.10;1.27;;;;;;;6.43;nan;96170.91;5036012;28;20552;-71
2022/11/22 01:52:31;;;;;;;2.40;1.50;;;;;;;6.45;nan;96171.47;5035848;28;20237;-71
2022/11/22 01:55:03;;;;;;;3.40;1.70;;;;;;;6.50;nan;96160.97;5036231;28;20194;-72
2022/11/22 01:57:33;;;;;;;3.40;1.60;;;;;;;6.49;nan;96169.94;5036159;28;20191;-71
2022/11/22 02:00:13;;;;;;;3.80;1.60;;;;;;;6.44;nan;96167.22;5035799;28;20634;-72
2022/11/22 02:02:40;;;;;;;2.80;1.70;;;;;;;6.40;nan;96174.81;5035987;28;20232;-71
2022/11/22 02:05:11;;;;;;;2.63;1.60;;;;;;;6.48;nan;96178.91;5035647;28;20688;-71
2022/11/22 02:08:00;;;;;;;2.77;1.40;;;;;;;6.45;nan;96180.19;5035898;28;20204;-71
2022/11/22 02:10:29;;;;;;;2.07;1.60;;;;;;;6.47;nan;96182.59;5036245;28;20554;-71
2022/11/22 02:12:59;;;;;;;4.10;1.57;;;;;;;6.49;nan;96185.78;5034671;28;20210;-71
2022/11/22 02:15:26;;;;;;;3.17;1.60;;;;;;;6.50;nan;96190.81;5035813;28;20209;-71
2022/11/22 02:17:52;;;;;;;3.07;1.57;;;;;;;6.56;nan;96189.09;5051021;28;20202;-71
2022/11/22 02:20:19;;;;;;;2.87;1.43;;;;;;;6.53;nan;96184.28;5035610;28;20245;-71
2022/11/22 02:22:51;;;;;;;3.47;1.27;;;;;;;6.52;nan;96188.75;5035656;28;20210;-71
2022/11/22 02:25:29;;;;;;;3.77;1.60;;;;;;;6.46;nan;96187.06;5035665;28;20200;-71
2022/11/22 02:27:56;;;;;;;4.00;1.83;;;;;;;6.48;nan;96198.19;5035511;28;20218;-71
2022/11/22 02:30:22;;;;;;;2.40;1.60;;;;;;;6.55;nan;96203.28;5035149;28;20202;-71
2022/11/22 02:32:48;;;;;;;2.90;1.57;;;;;;;6.56;nan;96215.47;5035463;28;20209;-71
2022/11/22 02:35:27;;;;;;;2.07;1.40;;;;;;;6.55;nan;96213.84;5035148;28;20206;-71
2022/11/22 02:37:59;;;;;;;4.37;1.70;;;;;;;6.47;nan;96214.25;5035092;28;20695;-71
2022/11/22 02:40:29;;;;;;;5.40;1.77;;;;;;;6.49;nan;96214.81;5035213;28;20225;-71
2022/11/22 02:43:05;;;;;;;1.43;1.20;;;;;;;6.45;nan;96203.94;5035296;28;20213;-71
2022/11/22 02:45:31;;;;;;;3.30;1.70;;;;;;;6.36;nan;96202.72;5035222;28;20205;-71
2022/11/22 02:48:09;;;;;;;2.83;1.60;;;;;;;6.34;nan;96201.38;5034942;28;20423;-71
2022/11/22 02:50:36;;;;;;;3.37;1.60;;;;;;;6.28;nan;96199.66;5034851;28;20241;-71
2022/11/22 02:53:02;;;;;;;2.73;1.80;;;;;;;6.25;nan;96197.50;5035137;28;20186;-71
2022/11/22 02:55:29;;;;;;;2.77;1.53;;;;;;;6.21;nan;96191.91;5035001;28;20232;-71
2022/11/22 02:57:56;;;;;;;5.83;1.70;;;;;;;6.18;nan;96194.19;5034948;28;20213;-71
2022/11/22 03:00:22;;;;;;;3.47;1.43;;;;;;;6.11;nan;96206.75;5034611;28;20206;-71
2022/11/22 03:02:49;;;;;;;3.00;1.40;;;;;;;6.05;nan;96189.19;5034863;28;20208;-71
2022/11/22 03:05:15;;;;;;;2.23;1.40;;;;;;;6.03;nan;96207.13;5034541;28;20212;-71
2022/11/22 03:07:42;;;;;;;2.00;1.50;;;;;;;6.01;nan;96206.56;5034404;28;20695;-71
2022/11/22 03:10:08;;;;;;;2.17;1.50;;;;;;;5.97;nan;96210.69;5034618;28;20214;-71
2022/11/22 03:12:35;;;;;;;3.67;1.50;;;;;;;5.93;nan;96212.19;5034418;28;20206;-71
2022/11/22 03:15:01;;;;;;;2.43;1.70;;;;;;;5.89;nan;96217.13;5034648;28;20228;-71
2022/11/22 03:17:27;;;;;;;4.10;1.63;;;;;;;5.89;nan;96229.53;5034587;28;20221;-71
2022/11/22 03:19:54;;;;;;;4.03;1.50;;;;;;;5.95;nan;96223.31;5034528;28;20204;-71
2022/11/22 03:22:20;;;;;;;2.93;1.43;;;;;;;5.97;nan;96224.66;5034334;28;20236;-71
2022/11/22 03:24:47;;;;;;;2.80;1.50;;;;;;;5.95;nan;96221.47;5034499;28;20212;-71
2022/11/22 03:27:13;;;;;;;3.40;1.70;;;;;;;6.04;nan;96232.44;5034193;28;20206;-71
2022/11/22 03:29:39;;;;;;;3.50;1.60;;;;;;;6.00;nan;96229.47;5033941;28;20226;-71
2022/11/22 03:32:06;;;;;;;1.87;1.30;;;;;;;6.05;nan;96234.03;5034246;28;20233;-71
2022/11/22 03:34:32;;;;;;;3.63;1.83;;;;;;;6.04;nan;96227.16;5034199;28;20237;-72
2022/11/22 03:36:59;;;;;;;4.50;1.83;;;;;;;6.06;nan;96236.44;5034124;28;20220;-71
2022/11/22 03:39:25;;;;;;;3.20;1.77;;;;;;;5.95;nan;96247.03;5034202;28;20206;-71
2022/11/22 03:41:54;;;;;;;2.67;1.70;;;;;;;5.99;nan;96248.19;5034056;28;20232;-72
2022/11/22 03:44:20;;;;;;;4.23;1.90;;;;;;;6.05;nan;96239.31;5033703;28;20206;-71
2022/11/22 03:46:47;;;;;;;3.67;1.37;;;;;;;6.09;nan;96243.09;5034050;28;20202;-71
2022/11/22 03:49:13;;;;;;;2.87;1.50;;;;;;;6.11;nan;96233.13;5034046;28;20222;-72
2022/11/22 03:51:39;;;;;;;5.27;1.60;;;;;;;6.09;nan;96243.09;5033703;28;20241;-72
2022/11/22 03:54:06;;;;;;;3.70;1.33;;;;;;;6.11;nan;96241.81;5033557;28;20208;-71
2022/11/22 03:56:32;;;;;;;4.20;1.50;;;;;;;6.14;nan;96243.19;5033915;28;20206;-71
2022/11/22 03:58:59;;;;;;;3.93;1.50;;;;;;;6.16;nan;96236.63;5033363;28;20292;-71
2022/11/22 04:01:25;;;;;;;5.30;1.57;;;;;;;6.19;nan;96236.19;5033698;28;20573;-71
2022/11/22 04:03:52;;;;;;;3.40;1.00;;;;;;;6.31;nan;96236.13;5033674;28;20208;-71
2022/11/22 04:06:18;;;;;;;3.90;1.27;;;;;;;6.33;nan;96239.34;5034098;28;20206;-71
2022/11/22 04:08:45;;;;;;;6.37;1.17;;;;;;;6.35;nan;96248.63;5033608;28;20234;-71
2022/11/22 04:11:11;;;;;;;5.00;1.27;;;;;;;6.36;nan;96246.78;5033537;28;20226;-71
2022/11/22 04:16:21;;;;;;;2.97;1.10;;;;;;;6.40;nan;96248.72;5033823;28;20620;-71
2022/11/22 04:18:47;;;;;;;3.33;1.40;;;;;;;6.40;nan;96247.91;5033447;28;20205;-71
2022/11/22 04:26:42;;;;;;;5.03;1.23;;;;;;;6.33;nan;96249.91;5033671;28;20177;-71
2022/11/22 04:29:08;;;;;;;3.50;1.23;;;;;;;6.24;nan;96261.88;5033564;28;20233;-71
2022/11/22 04:34:18;;;;;;;3.67;1.30;;;;;;;6.20;nan;96258.09;5033386;28;20256;-71
2022/11/22 04:36:45;;;;;;;4.83;1.47;;;;;;;6.14;nan;96254.53;5033192;28;20206;-71
2022/11/22 04:39:11;;;;;;;4.20;1.40;;;;;;;6.09;nan;96256.28;5033671;28;20658;-71
2022/11/22 04:41:37;;;;;;;4.07;1.57;;;;;;;6.01;nan;96262.72;5033259;28;20236;-71
2022/11/22 04:46:48;;;;;;;6.33;1.43;;;;;;;5.94;nan;96259.44;5033531;28;20219;-71
2022/11/22 04:49:14;;;;;;;4.27;1.30;;;;;;;5.91;nan;96259.06;5033057;28;20252;-71
2022/11/22 04:54:25;;;;;;;4.57;1.40;;;;;;;5.80;nan;96249.34;5033006;28;20533;-72
2022/11/22 04:56:51;;;;;;;4.87;1.40;;;;;;;5.82;nan;96248.09;5033209;28;20212;-71
2022/11/22 04:59:17;;;;;;;4.07;1.13;;;;;;;5.76;nan;96249.00;5033169;28;20202;-71
2022/11/22 05:01:44;;;;;;;4.03;1.33;;;;;;;5.62;nan;96241.56;5033146;28;20232;-72
2022/11/22 05:04:10;;;;;;;7.37;1.20;;;;;;;5.50;nan;96238.16;5032534;28;20665;-71
2022/11/22 05:06:37;;;;;;;4.20;1.27;;;;;;;5.47;nan;96238.63;5032782;28;20206;-71
2022/11/22 05:09:04;;;;;;;3.33;1.30;;;;;;;5.46;nan;96244.91;5032772;28;20225;-71
2022/11/22 05:11:30;;;;;;;2.53;1.20;;;;;;;5.49;nan;96244.47;5035167;28;20229;-71
2022/11/22 05:13:57;;;;;;;3.20;1.20;;;;;;;5.42;nan;96249.84;5036805;28;20210;-71
2022/11/22 05:16:23;;;;;;;3.20;1.20;;;;;;;5.38;nan;96250.56;5036722;28;20206;-72
2022/11/22 05:18:58;;;;;;;4.80;1.43;;;;;;;5.26;nan;96257.66;5036567;28;20204;-71
2022/11/22 05:21:27;;;;;;;3.90;1.53;;;;;;;5.23;nan;96269.44;5036482;28;20229;-72
2022/11/22 05:23:55;;;;;;;5.73;1.23;;;;;;;5.23;nan;96277.34;5036024;28;20210;-72
2022/11/22 05:26:30;;;;;;;5.10;1.20;;;;;;;5.26;nan;96283.97;5036512;28;20206;-71
2022/11/22 05:28:57;;;;;;;4.90;1.43;;;;;;;5.39;nan;96291.66;5036011;28;20694;-71
2022/11/22 05:31:26;;;;;;;6.77;1.37;;;;;;;5.49;nan;96292.69;5036424;28;20225;-71
2022/11/22 05:33:55;;;;;;;5.27;1.50;;;;;;;5.51;nan;96285.34;5036092;28;20202;-71
2022/11/22 05:36:22;;;;;;;6.47;1.33;;;;;;;5.50;nan;96280.31;5036063;28;20201;-71
2022/11/22 05:38:48;;;;;;;5.73;1.50;;;;;;;5.51;nan;96280.09;5036158;28;20198;-71
2022/11/22 05:41:16;;;;;;;5.13;1.23;;;;;;;5.62;nan;96286.38;5035957;28;20225;-71
2022/11/22 05:43:43;;;;;;;3.43;1.60;;;;;;;5.73;nan;96283.75;5036079;28;20232;-71
2022/11/22 05:46:11;;;;;;;2.37;1.47;;;;;;;5.82;nan;96292.94;5035820;28;20214;-71
2022/11/22 05:48:40;;;;;;;3.60;1.50;;;;;;;5.89;nan;96295.44;5035701;28;20222;-72
2022/11/22 05:51:09;;;;;;;4.87;1.50;;;;;;;5.93;nan;96297.38;5035993;28;20238;-72
2022/11/22 05:53:36;;;;;;;5.10;1.57;;;;;;;6.04;nan;96298.38;5035921;28;20208;-71
2022/11/22 05:56:06;;;;;;;3.30;1.20;;;;;;;6.07;nan;96303.19;5035777;28;20210;-71
2022/11/22 05:58:34;;;;;;;3.83;1.37;;;;;;;6.08;nan;96297.69;5035580;28;20247;-71
2022/11/22 06:01:08;;;;;;;6.80;1.60;;;;;;;6.03;nan;96294.16;5035525;28;20226;-71
2022/11/22 06:03:36;;;;;;;7.40;1.50;;;;;;;5.98;nan;96296.69;5035066;28;20206;-71
2022/11/22 06:06:04;;;;;;;3.43;1.30;;;;;;;5.95;nan;96303.22;5035378;28;20213;-71
2022/11/22 06:08:31;;;;;;;4.53;1.43;;;;;;;5.96;nan;96309.28;5034896;28;20736;-71
2022/11/22 06:11:12;;;;;;;3.03;1.17;;;;;;;5.85;nan;96305.66;5035108;28;20222;-71
2022/11/22 06:13:42;;;;;;;7.07;1.73;;;;;;;5.85;nan;96312.75;5035297;28;20213;-72
2022/11/22 06:16:09;;;;;;;5.83;1.40;;;;;;;5.84;nan;96317.22;5034983;28;20677;-71
2022/11/22 06:18:36;;;;;;;5.10;1.47;;;;;;;5.76;nan;96320.19;5035000;28;20212;-71
2022/11/22 06:21:10;;;;;;;6.83;1.50;;;;;;;5.73;nan;96315.38;5034302;28;20226;-71
2022/11/22 06:23:36;;;;;;;6.93;1.30;;;;;;;5.71;nan;96322.72;5034716;28;20195;-71
2022/11/22 06:26:08;;;;;;;3.20;1.23;;;;;;;5.68;nan;96322.34;5034354;28;20642;-71
2022/11/22 06:28:36;;;;;;;4.57;1.40;;;;;;;5.69;nan;96322.13;5033960;28;20233;-71
2022/11/22 06:31:06;;;;;;;5.43;1.37;;;;;;;5.72;nan;96323.50;5034375;28;20709;-71
2022/11/22 06:33:33;;;;;;;8.23;1.83;;;;;;;5.85;nan;96329.38;5034755;28;20206;-72
2022/11/22 06:36:04;;;;;;;5.33;1.50;;;;;;;5.83;nan;96338.56;5034477;28;20546;-71
2022/11/22 06:38:31;;;;;;;8.17;1.53;;;;;;;5.80;nan;96341.63;5034624;28;20209;-71
2022/11/22 06:41:03;;;;;;;5.37;1.80;;;;;;;5.81;nan;96337.97;5034416;28;20717;-72
2022/11/22 06:43:30;;;;;;;6.40;1.60;;;;;;;5.80;nan;96346.88;5034588;28;20206;-70
2022/11/22 06:45:58;;;;;;;5.83;1.90;;;;;;;5.88;nan;96354.50;5034412;28;20213;-71
2022/11/22 06:48:25;;;;;;;6.30;1.70;;;;;;;5.86;nan;96353.91;5034560;28;20206;-71
2022/11/22 06:50:52;;;;;;;6.67;1.80;;;;;;;5.85;nan;96362.84;5034269;28;20240;-71
2022/11/22 06:53:18;;;;;;;4.07;1.67;;;;;;;5.86;nan;96378.44;5033963;28;20637;-71
2022/11/22 06:55:45;;;;;;;8.30;1.60;;;;;;;5.93;nan;96388.88;5034195;28;20235;-71
2022/11/22 06:58:11;;;;;;;3.57;1.60;;;;;;;5.95;nan;96392.91;5034397;28;20205;-71
2022/11/22 07:00:37;;;;;;;4.63;1.47;;;;;;;5.84;nan;96393.69;5033706;28;20230;-73
2022/11/22 07:03:04;;;;;;;6.77;1.70;;;;;;;5.85;nan;96389.22;5034250;28;20206;-74
2022/11/22 07:05:30;;;;;;;4.90;1.70;;;;;;;5.81;nan;96401.25;5033841;28;20220;-73
2022/11/22 07:07:56;;;;;;;7.57;1.90;;;;;;;5.80;nan;96405.75;5033963;28;20252;-73
2022/11/22 07:10:23;;;;;;;4.93;1.93;;;;;;;5.82;nan;96410.75;5033959;28;20226;-74
2022/11/22 07:12:49;;;;;;;4.57;1.70;;;;;;;5.82;nan;96421.31;5034150;28;20206;-74
2022/11/22 07:15:15;;;;;;;7.43;1.80;;;;;;;5.84;nan;96414.00;5034281;28;20202;-73
2022/11/22 07:17:42;;;;;;;5.83;1.73;;;;;;;5.83;nan;96417.66;5034154;28;20202;-74
2022/11/22 07:20:09;;;;;;;4.97;1.63;;;;;;;5.86;nan;96414.56;5033931;28;20229;-73
2022/11/22 07:22:35;;;;;;;7.10;1.90;;;;;;;5.86;nan;96415.38;5033640;28;20220;-74
2022/11/22 07:25:02;;;;;;;7.27;2.00;;;;;;;5.83;nan;96415.81;5033852;28;20232;-74
2022/11/22 07:27:28;;;;;;;4.93;1.87;;;;;;;5.80;nan;96421.56;5034509;28;20568;-74
2022/11/22 07:29:54;;;;;;;4.80;1.50;;;;;;;5.84;nan;96424.53;5034204;28;20314;-74
2022/11/22 07:32:21;;;;;;;4.73;2.10;;;;;;;5.87;nan;96430.16;5033460;28;20237;-74
2022/11/22 07:34:47;;;;;;;4.37;1.77;;;;;;;5.85;nan;96434.03;5033027;28;20645;-73
2022/11/22 07:37:13;;;;;;;7.57;2.03;;;;;;;5.92;nan;96440.03;5033348;28;20266;-74
2022/11/22 07:39:40;;;;;;;7.37;2.40;;;;;;;5.92;nan;96442.66;5033748;28;20206;-73
2022/11/22 07:42:06;;;;;;;7.23;2.20;;;;;;;5.98;nan;96439.09;5032761;28;20735;-73
2022/11/22 07:44:32;;;;;;;7.83;2.23;;;;;;;5.98;nan;96449.66;5033187;28;20202;-73
2022/11/22 07:46:59;;;;;;;7.57;2.00;;;;;;;6.04;nan;96454.81;5033539;28;20205;-74
2022/11/22 07:49:25;;;;;;;6.80;2.40;;;;;;;6.08;nan;96453.34;5033184;28;20221;-73
2022/11/22 07:51:52;;;;;;;7.30;2.30;;;;;;;6.16;nan;96460.09;5032978;28;20237;-73
2022/11/22 07:54:18;;;;;;;7.17;2.30;;;;;;;6.20;nan;96461.25;5032977;28;20201;-73
2022/11/22 07:56:45;;;;;;;8.27;2.20;;;;;;;6.24;nan;96459.75;5033385;28;20205;-73
2022/11/22 07:59:11;;;;;;;7.57;2.30;;;;;;;6.21;nan;96458.38;5033114;28;20198;-73
2022/11/22 08:01:37;;;;;;;8.80;2.40;;;;;;;6.22;nan;96459.16;5033231;28;20222;-73
2022/11/22 08:04:04;;;;;;;8.00;2.40;;;;;;;6.28;nan;96460.88;5033285;28;20201;-73
2022/11/22 08:06:30;;;;;;;12.03;2.70;;;;;;;6.28;nan;96463.50;5033059;28;20756;-73
2022/11/22 08:08:56;;;;;;;6.13;2.07;;;;;;;6.24;nan;96460.53;5033008;28;20660;-73
2022/11/22 08:11:23;;;;;;;8.80;2.33;;;;;;;6.27;nan;96460.09;5033041;28;20233;-73
2022/11/22 08:13:49;;;;;;;9.27;2.13;;;;;;;6.30;nan;96464.09;5033196;28;20216;-73
2022/11/22 08:16:17;;;;;;;6.23;2.17;;;;;;;6.37;nan;96464.78;5034068;28;20292;-74
2022/11/22 08:18:50;;;;;;;6.03;2.10;;;;;;;6.38;nan;96467.19;5033448;28;20546;-73
2022/11/22 08:21:18;;;;;;;8.57;2.00;;;;;;;6.43;nan;96469.16;5032875;28;20735;-73
2022/11/22 08:23:46;;;;;;;10.73;2.33;;;;;;;6.44;nan;96461.00;5032872;28;20212;-73
2022/11/22 08:26:15;;;;;;;7.80;2.10;;;;;;;6.47;nan;96465.00;5032946;28;20206;-73
2022/11/22 08:28:42;;;;;;;8.33;2.40;;;;;;;6.45;nan;96467.06;5032472;28;20212;-73
2022/11/22 08:31:12;;;;;;;8.20;2.17;;;;;;;6.54;nan;96470.97;5032902;28;20243;-74
2022/11/22 08:33:39;;;;;;;4.73;1.73;;;;;;;6.50;nan;96469.81;5033014;28;20206;-73
2022/11/22 08:36:06;;;;;;;5.27;1.80;;;;;;;6.61;nan;96469.00;5033016;28;20201;-73
2022/11/22 08:38:33;;;;;;;4.90;2.17;;;;;;;6.59;nan;96463.94;5032663;28;20209;-73
2022/11/22 08:40:59;;;;;;;6.67;1.90;;;;;;;6.65;nan;96462.22;5032643;28;20228;-73
2022/11/22 08:43:26;;;;;;;5.83;1.70;;;;;;;6.69;nan;96458.09;5032415;28;20660;-73
2022/11/22 08:45:57;;;;;;;5.30;1.83;;;;;;;6.72;nan;96460.25;5035803;28;20205;-73
2022/11/22 08:48:25;;;;;;;3.50;2.00;;;;;;;6.74;nan;96461.63;5036546;28;20209;-73
2022/11/22 08:51:12;;;;;;;9.47;2.23;;;;;;;6.82;nan;96447.25;5036353;28;20589;-73
2022/11/22 08:53:43;;;;;;;8.53;2.40;;;;;;;6.90;nan;96446.88;5037073;28;20212;-73
2022/11/22 08:56:16;;;;;;;4.23;2.10;;;;;;;6.98;nan;96446.50;5036630;28;20574;-73
2022/11/22 08:58:43;;;;;;;6.97;2.03;;;;;;;6.96;nan;96453.84;5037436;28;20190;-73
2022/11/22 09:01:12;;;;;;;5.87;1.83;;;;;;;6.99;nan;96442.84;5036450;28;20226;-73
2022/11/22 09:03:40;;;;;;;8.17;2.10;;;;;;;7.06;nan;96443.50;5036775;28;20272;-73
2022/11/22 09:06:12;;;;;;;6.43;2.30;;;;;;;7.10;nan;96442.00;5036801;28;20209;-73
2022/11/22 09:08:39;;;;;;;6.03;1.90;;;;;;;7.08;nan;96436.13;5036824;28;20201;-73
2022/11/22 09:11:12;;;;;;;6.30;2.27;;;;;;;7.10;nan;96434.06;5036815;28;20279;-73
2022/11/22 09:13:42;;;;;;;6.33;2.00;;;;;;;7.21;nan;96435.84;5037269;28;20190;-74
2022/11/22 09:16:12;;;;;;;7.63;1.80;;;;;;;7.22;nan;96430.34;5036156;28;20190;-74
2022/11/22 09:18:39;;;;;;;7.40;2.00;;;;;;;7.29;nan;96425.69;5036793;28;20279;-73
2022/11/22 09:21:08;;;;;;;5.30;1.90;;;;;;;7.41;nan;96420.34;5036557;28;20228;-74
2022/11/22 09:23:36;;;;;;;7.20;1.60;;;;;;;7.47;nan;96420.19;5036134;28;20210;-74
2022/11/22 09:26:08;;;;;;;3.83;1.97;;;;;;;7.47;nan;96435.28;5036109;28;20206;-74
2022/11/22 09:28:35;;;;;;;6.63;2.30;;;;;;;7.44;nan;96439.19;5036348;28;20213;-74
2022/11/22 09:31:22;;;;;;;6.93;2.30;;;;;;;7.54;nan;96446.47;5035920;28;20276;-75
2022/11/22 09:33:49;;;;;;;6.80;2.30;;;;;;;7.53;nan;96458.09;5036470;28;20552;-74
2022/11/22 09:36:22;;;;;;;7.10;2.13;;;;;;;7.55;nan;96466.63;5036257;28;20305;-74
2022/11/22 09:38:51;;;;;;;6.13;1.87;;;;;;;7.57;nan;96472.47;5036240;28;20739;-74
2022/11/22 09:41:42;;;;;;;6.97;2.40;;;;;;;7.55;nan;96479.84;5035751;28;20727;-75
2022/11/22 09:44:33;;;;;;;8.97;2.20;;;;;;;7.72;nan;96478.00;5036078;28;20256;-75
2022/11/22 09:47:18;;;;;;;9.00;2.37;;;;;;;7.79;nan;96476.78;5035944;28;20670;-75
2022/11/22 09:50:04;;;;;;;5.93;1.97;;;;;;;7.82;nan;96481.63;5035866;28;20210;-75
2022/11/22 09:52:34;;;;;;;3.83;1.80;;;;;;;7.87;nan;96487.00;5034581;28;20609;-75
2022/11/22 09:55:10;;;;;;;3.73;1.70;;;;;;;7.90;nan;96491.00;5036107;28;20292;-75
2022/11/22 09:57:44;;;;;;;4.50;2.20;;;;;;;7.82;nan;96492.19;5035424;28;20193;-75
2022/11/22 10:00:25;;;;;;;6.67;2.10;;;;;;;7.79;nan;96497.16;5035555;28;20185;-75
2022/11/22 10:03:07;;;;;;;5.27;1.93;;;;;;;7.82;nan;96504.63;5035491;28;20194;-75
2022/11/22 10:05:55;;;;;;;6.27;1.90;;;;;;;7.84;nan;96502.53;5035908;28;20186;-75
2022/11/22 10:08:24;;;;;;;8.27;2.20;;;;;;;7.94;nan;96500.06;5035821;28;20198;-75
2022/11/22 10:10:56;;;;;;;8.27;2.23;;;;;;;7.88;nan;96509.75;5035605;28;20230;-75
2022/11/22 10:13:30;;;;;;;7.90;2.03;;;;;;;7.89;nan;96513.22;5034267;28;20197;-76
2022/11/22 10:16:00;;;;;;;7.13;2.00;;;;;;;7.96;nan;96514.66;5034369;28;20194;-75
2022/11/22 10:18:39;;;;;;;4.60;1.90;;;;;;;7.99;nan;96511.53;5035570;28;20252;-75
2022/11/22 10:21:14;;;;;;;7.23;2.20;;;;;;;8.02;nan;96515.56;5033562;28;20224;-75
2022/11/22 10:23:45;;;;;;;8.00;2.13;;;;;;;8.05;nan;96517.72;5035353;28;20194;-76
2022/11/22 10:26:31;;;;;;;6.20;2.10;;;;;;;8.07;nan;96511.16;5035097;28;20201;-76
2022/11/22 10:29:05;;;;;;;5.23;1.87;;;;;;;7.94;nan;96521.22;5035145;28;20598;-73
2022/11/22 10:31:39;;;;;;;7.93;1.87;;;;;;;7.97;nan;96524.19;5035169;28;20375;-73
2022/11/22 10:34:11;;;;;;;5.13;2.30;;;;;;;8.09;nan;96513.53;5034845;28;20518;-73
2022/11/22 10:36:50;;;;;;;7.20;2.17;;;;;;;8.00;nan;96530.84;5035343;28;20287;-73
2022/11/22 10:39:34;;;;;;;6.43;2.00;;;;;;;8.08;nan;96520.69;5034683;28;20677;-73
2022/11/22 10:42:10;;;;;;;4.97;2.20;;;;;;;8.19;nan;96521.66;5034975;28;20280;-73
2022/11/22 10:44:42;;;;;;;5.97;2.03;;;;;;;8.13;nan;96517.31;5035335;28;20186;-73
2022/11/22 10:47:08;;;;;;;6.53;1.50;;;;;;;8.07;nan;96526.22;5034944;28;20194;-73
2022/11/22 10:49:59;;;;;;;4.90;1.90;;;;;;;8.12;nan;96521.81;5034994;28;20213;-73
2022/11/22 10:52:31;;;;;;;6.60;1.80;;;;;;;8.09;nan;96518.81;5034349;28;20279;-73
2022/11/22 10:55:23;;;;;;;5.10;1.70;;;;;;;8.03;nan;96525.09;5034369;28;20214;-73
2022/11/22 10:57:49;;;;;;;6.83;1.60;;;;;;;8.08;nan;96512.75;5033313;28;20204;-72
2022/11/22 11:00:20;;;;;;;8.17;1.97;;;;;;;8.17;nan;96515.78;5034409;28;20565;-72
2022/11/22 11:03:26;;;;;;;6.83;1.90;;;;;;;8.21;nan;96517.75;5034600;28;20229;-72
2022/11/22 11:06:03;;;;;;;7.03;1.90;;;;;;;8.13;nan;96518.13;5034537;28;20186;-73
2022/11/22 11:08:38;;;;;;;6.20;1.60;;;;;;;8.27;nan;96516.78;5034435;28;20229;-73
2022/11/22 11:11:05;;;;;;;5.80;1.80;;;;;;;8.21;nan;96516.94;5034236;28;20237;-73
2022/11/22 11:13:39;;;;;;;2.80;1.40;;;;;;;8.18;nan;96522.69;5034204;28;20209;-72
2022/11/22 11:16:10;;;;;;;3.90;1.50;;;;;;;8.30;nan;96507.56;5033345;28;20273;-72
2022/11/22 11:18:49;;;;;;;4.67;1.33;;;;;;;8.18;nan;96506.78;5034365;28;20190;-72
2022/11/22 11:21:15;;;;;;;5.83;1.37;;;;;;;8.09;nan;96506.41;5034093;28;20239;-72
2022/11/22 11:23:42;;;;;;;5.53;1.60;;;;;;;8.19;nan;96514.50;5034296;28;20255;-72
2022/11/22 11:26:35;;;;;;;4.67;1.60;;;;;;;8.26;nan;96504.59;5034284;28;20202;-71
2022/11/22 11:29:31;;;;;;;4.23;1.70;;;;;;;8.18;nan;96497.03;5030460;28;20681;-72
2022/11/22 11:32:06;;;;;;;5.57;1.67;;;;;;;8.24;nan;96495.28;5033768;28;20575;-72
2022/11/22 11:34:34;;;;;;;6.40;1.63;;;;;;;8.27;nan;96486.84;5033911;28;20209;-71
2022/11/22 11:37:02;;;;;;;4.07;1.30;;;;;;;8.17;nan;96498.06;5034009;28;20209;-72
2022/11/22 11:39:33;;;;;;;5.57;1.23;;;;;;;8.27;nan;96500.09;5034044;28;20206;-72
2022/11/22 11:42:00;;;;;;;6.20;1.43;;;;;;;8.31;nan;96496.72;5033743;28;20229;-72
2022/11/22 11:44:34;;;;;;;6.47;1.60;;;;;;;8.51;nan;96488.28;5033972;28;20232;-72
2022/11/22 11:47:01;;;;;;;5.83;1.60;;;;;;;8.60;nan;96484.94;5033717;28;20224;-72
2022/11/22 11:49:30;;;;;;;4.70;1.57;;;;;;;8.48;nan;96491.41;5033592;28;20206;-72
2022/11/22 11:52:02;;;;;;;6.37;1.63;;;;;;;8.57;nan;96489.94;5033247;28;20608;-72
2022/11/22 11:54:43;;;;;;;6.17;1.80;;;;;;;8.26;nan;96483.41;5033686;28;20208;-72
2022/11/22 11:57:25;;;;;;;5.03;1.77;;;;;;;8.40;nan;96473.28;5034231;28;20209;-72
2022/11/22 11:59:53;;;;;;;4.73;1.50;;;;;;;8.43;nan;96472.81;5033438;28;20198;-73
2022/11/22 12:02:24;;;;;;;6.10;1.50;;;;;;;8.65;nan;96469.13;5033259;28;20222;-73
2022/11/22 12:05:00;;;;;;;8.77;1.73;;;;;;;8.49;nan;96459.41;5032286;28;20623;-73
2022/11/22 12:07:38;;;;;;;4.63;1.53;;;;;;;8.40;nan;96455.56;5033539;28;20213;-72
2022/11/22 12:10:35;;;;;;;5.03;1.40;;;;;;;8.36;nan;96456.28;5033317;28;20304;-72
2022/11/22 12:13:31;;;;;;;4.43;1.20;;;;;;;8.43;nan;96446.31;5033319;28;20714;-72
2022/11/22 12:16:20;;;;;;;3.10;1.27;;;;;;;8.34;nan;96456.53;5032979;28;20194;-72
2022/11/22 12:18:57;;;;;;;6.10;1.30;;;;;;;8.37;nan;96448.09;5033029;28;20202;-72
2022/11/22 12:21:40;;;;;;;5.33;1.23;;;;;;;8.36;nan;96448.34;5032507;28;20687;-72
2022/11/22 12:24:12;;;;;;;4.77;1.23;;;;;;;8.54;nan;96440.09;5033169;28;20216;-73
2022/11/22 12:26:39;;;;;;;4.13;1.10;;;;;;;8.42;nan;96440.22;5033029;28;20187;-72
2022/11/22 12:29:05;;;;;;;6.80;1.17;;;;;;;8.42;nan;96439.44;5032863;28;20292;-72